createdAt,value
2019-03-11T00:02:58.361Z,98418.75
2019-03-11T00:08:03.793Z,98418.56
2019-03-11T00:13:09.049Z,98421.11
2019-03-11T00:18:14.413Z,98415.36
2019-03-11T00:23:19.682Z,98405.77
2019-03-11T00:28:24.909Z,98400.05
2019-03-11T00:33:30.185Z,98403.52
2019-03-11T00:38:35.437Z,98398.73
2019-03-11T00:43:40.636Z,98386.61
2019-03-11T00:48:47.334Z,98386.32
2019-03-11T00:53:52.801Z,98377.48
2019-03-11T00:58:59.479Z,98361.51
2019-03-11T01:04:04.781Z,98357.45
2019-03-11T01:09:10.450Z,98346.82
2019-03-11T01:14:16.123Z,98346.52
2019-03-11T01:19:21.977Z,98352.47
2019-03-11T01:24:27.221Z,98349.64
2019-03-11T01:29:32.449Z,98322.91
2019-03-11T01:34:39.021Z,98312.47
2019-03-11T01:39:44.399Z,98291.53
2019-03-11T01:44:49.624Z,98283.91
2019-03-11T01:49:54.826Z,98295.00
2019-03-11T01:55:00.012Z,98270.89
2019-03-11T02:00:06.429Z,98268.27
2019-03-11T02:05:11.901Z,98260.15
2019-03-11T02:10:17.184Z,98268.74
2019-03-11T02:15:23.763Z,98320.24
2019-03-11T02:20:29.107Z,98352.45
2019-03-11T02:25:34.379Z,98355.83
2019-03-11T02:30:39.954Z,98355.02
2019-03-11T02:35:45.153Z,98347.23
2019-03-11T02:40:50.433Z,98296.93
2019-03-11T02:45:55.703Z,98290.02
2019-03-11T02:51:01.036Z,98284.79
2019-03-11T02:56:06.333Z,98290.73
2019-03-11T03:01:30.674Z,98293.99
2019-03-11T03:06:35.878Z,98298.21
2019-03-11T03:11:41.349Z,98287.80
2019-03-11T03:16:46.766Z,98290.41
2019-03-11T03:21:51.986Z,98320.47
2019-03-11T03:26:57.366Z,98339.97
2019-03-11T03:32:02.642Z,98338.27
2019-03-11T03:37:08.150Z,98346.31
2019-03-11T03:42:13.888Z,98348.02
2019-03-11T03:47:19.340Z,98353.27
2019-03-11T03:52:24.519Z,98324.70
2019-03-11T03:57:29.773Z,98327.77
2019-03-11T04:02:34.962Z,98325.69
2019-03-11T04:07:40.182Z,98323.40
2019-03-11T04:12:45.643Z,98320.88
2019-03-11T04:17:51.042Z,98311.58
2019-03-11T04:22:56.254Z,98311.58
2019-03-11T04:28:01.469Z,98312.28
2019-03-11T04:33:06.705Z,98314.91
2019-03-11T04:38:11.892Z,98311.89
2019-03-11T04:43:17.138Z,98321.25
2019-03-11T04:48:22.342Z,98317.05
2019-03-11T04:53:27.554Z,98335.44
2019-03-11T04:58:32.835Z,98333.36
2019-03-11T05:03:38.070Z,98336.75
2019-03-11T05:08:43.265Z,98346.10
2019-03-11T05:13:48.532Z,98359.19
2019-03-11T05:18:53.776Z,98348.66
2019-03-11T05:23:59.172Z,98331.96
2019-03-11T05:29:04.433Z,98353.05
2019-03-11T05:34:09.629Z,98334.81
2019-03-11T05:39:15.068Z,98339.25
2019-03-11T05:44:20.314Z,98357.55
2019-03-11T05:49:25.876Z,98362.19
2019-03-11T05:54:31.213Z,98353.81
2019-03-11T05:59:36.767Z,98358.69
2019-03-11T06:04:41.992Z,98349.59
2019-03-11T06:09:47.289Z,98365.64
2019-03-11T06:14:52.546Z,98364.31
2019-03-11T06:20:19.776Z,98370.63
2019-03-11T06:25:25.060Z,98373.18
2019-03-11T06:30:30.252Z,98374.21
2019-03-11T06:35:35.525Z,98382.39
2019-03-11T06:40:40.799Z,98387.82
2019-03-11T06:45:46.103Z,98393.25
2019-03-11T06:50:51.613Z,98398.20
2019-03-11T06:55:57.249Z,98412.96
2019-03-11T07:01:02.675Z,98416.20
2019-03-11T07:06:09.678Z,98409.56
2019-03-11T07:11:15.613Z,98412.11
2019-03-11T07:16:20.943Z,98415.61
2019-03-11T07:21:26.235Z,98422.57
2019-03-11T07:26:31.515Z,98427.22
2019-03-11T07:31:37.857Z,98427.98
2019-03-11T07:36:43.085Z,98433.42
2019-03-11T07:41:48.412Z,98438.09
2019-03-11T07:46:53.590Z,98437.35
2019-03-11T07:51:59.287Z,98442.66
2019-03-11T07:57:04.870Z,98440.98
2019-03-11T08:02:10.499Z,98437.78
2019-03-11T08:07:15.880Z,98449.00
2019-03-11T08:12:21.131Z,98456.38
2019-03-11T08:17:26.877Z,98471.84
2019-03-11T08:22:33.949Z,98486.14
2019-03-11T08:27:39.280Z,98499.06
2019-03-11T08:32:44.607Z,98495.57
2019-03-11T08:37:49.825Z,98521.50
2019-03-11T08:42:55.234Z,98523.70
2019-03-11T08:48:00.772Z,98522.29
2019-03-11T08:53:06.112Z,98519.23
2019-03-11T08:58:11.422Z,98518.72
2019-03-11T09:03:16.640Z,98523.24
2019-03-11T09:08:21.902Z,98509.58
2019-03-11T09:13:27.829Z,98507.87
2019-03-11T09:18:33.090Z,98520.17
2019-03-11T09:23:38.476Z,98529.97
2019-03-11T09:28:43.652Z,98536.63
2019-03-11T09:33:48.827Z,98540.95
2019-03-11T09:38:54.354Z,98550.55
2019-03-11T09:43:59.964Z,98559.88
2019-03-11T09:49:05.259Z,98553.41
2019-03-11T09:54:10.440Z,98562.89
2019-03-11T10:05:37.336Z,98570.05
2019-03-11T10:10:42.997Z,98574.00
2019-03-11T10:15:48.203Z,98578.38
2019-03-11T10:20:53.511Z,98577.76
2019-03-11T10:25:59.451Z,98580.19
2019-03-11T10:31:05.956Z,98586.06
2019-03-11T10:36:11.444Z,98595.84
2019-03-11T10:41:16.657Z,98596.97
2019-03-11T10:46:22.176Z,98611.31
2019-03-11T10:51:27.469Z,98603.80
2019-03-11T10:56:33.165Z,98617.76
2019-03-11T11:01:38.532Z,98635.48
2019-03-11T11:06:43.739Z,98631.60
2019-03-11T11:11:49.760Z,98639.75
2019-03-11T11:16:55.323Z,98638.45
2019-03-11T11:22:01.537Z,98641.11
2019-03-11T11:27:08.028Z,98640.98
2019-03-11T11:32:13.239Z,98646.70
2019-03-11T11:37:18.392Z,98651.64
2019-03-11T11:42:23.576Z,98657.67
2019-03-11T11:47:29.062Z,98669.56
2019-03-11T11:52:34.260Z,98661.53
2019-03-11T11:57:39.486Z,98665.11
2019-03-11T12:02:44.960Z,98676.11
2019-03-11T12:07:50.379Z,98665.72
2019-03-11T12:12:55.661Z,98679.08
2019-03-11T12:18:00.985Z,98679.95
2019-03-11T12:23:07.168Z,98689.52
2019-03-11T12:28:12.434Z,98682.17
2019-03-11T12:33:20.232Z,98678.25
2019-03-11T12:38:24.755Z,98679.39
2019-03-11T12:43:30.019Z,98668.83
2019-03-11T12:48:35.458Z,98664.81
2019-03-11T12:53:40.696Z,98676.07
2019-03-11T12:58:45.960Z,98668.55
2019-03-11T13:03:51.148Z,98699.17
2019-03-11T13:08:56.325Z,98716.27
2019-03-11T13:14:01.520Z,98721.37
2019-03-11T13:19:13.045Z,98700.68
2019-03-11T13:24:14.369Z,98697.09
2019-03-11T13:29:19.758Z,98698.95
2019-03-11T13:34:25.065Z,98722.81
2019-03-11T13:39:30.361Z,98736.69
2019-03-11T13:44:35.664Z,98755.42
2019-03-11T13:49:41.223Z,98781.75
2019-03-11T13:54:46.492Z,98786.02
2019-03-11T13:59:51.980Z,98775.29
2019-03-11T14:04:57.207Z,98779.10
2019-03-11T14:10:02.518Z,98767.48
2019-03-11T14:15:10.414Z,98766.94
2019-03-11T14:20:16.366Z,98758.57
2019-03-11T14:25:21.707Z,98807.05
2019-03-11T14:30:26.983Z,98822.96
2019-03-11T14:35:32.379Z,98822.86
2019-03-11T14:40:37.583Z,98797.72
2019-03-11T14:45:42.905Z,98800.36
2019-03-11T14:50:48.268Z,98800.78
2019-03-11T14:55:54.524Z,98794.64
2019-03-11T15:01:32.890Z,98802.24
2019-03-11T15:06:39.253Z,98850.98
2019-03-11T15:11:45.130Z,98856.56
2019-03-11T15:16:51.605Z,98839.30
2019-03-11T15:21:57.459Z,98846.03
2019-03-11T15:27:03.224Z,98834.92
2019-03-11T15:32:08.699Z,98821.48
2019-03-11T15:37:14.116Z,98819.72
2019-03-11T15:42:19.489Z,98842.59
2019-03-11T15:47:25.086Z,98842.26
2019-03-11T15:52:32.474Z,98824.35
2019-03-11T15:57:40.052Z,98822.20
2019-03-11T16:02:45.828Z,98826.28
2019-03-11T16:07:51.431Z,98828.38
2019-03-11T16:12:58.140Z,98833.84
2019-03-11T16:18:03.950Z,98840.11
2019-03-11T16:23:09.642Z,98848.96
2019-03-11T16:28:15.819Z,98854.31
2019-03-11T16:33:21.065Z,98866.22
2019-03-11T16:38:26.623Z,98858.77
2019-03-11T16:43:31.889Z,98856.68
2019-03-11T16:48:37.058Z,98877.88
2019-03-11T16:53:42.593Z,98869.79
2019-03-11T16:58:47.997Z,98887.91
2019-03-11T17:03:53.633Z,98887.64
2019-03-11T17:08:58.817Z,98892.61
2019-03-11T17:14:04.182Z,98896.95
2019-03-11T17:19:09.348Z,98904.13
2019-03-11T17:24:14.532Z,98903.36
2019-03-11T17:29:19.880Z,98914.06
2019-03-11T17:34:25.065Z,98921.55
2019-03-11T17:39:30.586Z,98931.77
2019-03-11T17:44:36.138Z,98944.08
2019-03-11T17:49:41.336Z,98953.78
2019-03-11T17:54:46.605Z,98949.79
2019-03-11T17:59:52.197Z,98948.08
2019-03-11T18:04:57.643Z,98968.50
2019-03-11T18:10:03.011Z,98985.14
2019-03-11T18:15:09.773Z,98991.09
2019-03-11T18:20:15.100Z,99007.00
2019-03-11T18:25:20.547Z,99010.20
2019-03-11T18:30:25.858Z,99023.51
2019-03-11T18:35:33.996Z,99026.39
2019-03-11T18:40:38.399Z,99043.00
2019-03-11T18:45:43.673Z,99042.62
2019-03-11T18:50:49.141Z,99042.95
2019-03-11T18:55:54.409Z,99042.73
2019-03-11T19:00:59.733Z,99064.08
2019-03-11T19:06:07.813Z,99047.92
2019-03-11T19:11:13.187Z,99056.39
2019-03-11T19:16:18.412Z,99053.20
2019-03-11T19:21:23.974Z,99096.71
2019-03-11T19:26:31.101Z,99083.36
2019-03-11T19:31:36.352Z,99091.44
2019-03-11T19:36:41.879Z,99098.48
2019-03-11T19:41:47.919Z,99122.03
2019-03-11T19:46:53.346Z,99102.16
2019-03-11T19:51:58.935Z,99124.77
2019-03-11T19:57:04.427Z,99132.84
2019-03-11T20:02:09.842Z,99126.25
2019-03-11T20:07:16.117Z,99154.36
2019-03-11T20:12:22.824Z,99166.47
2019-03-11T20:17:29.267Z,99151.55
2019-03-11T20:22:34.865Z,99158.07
2019-03-11T20:27:41.702Z,99155.36
2019-03-11T20:32:48.792Z,99161.63
2019-03-11T20:37:54.483Z,99166.36
2019-03-11T20:43:00.118Z,99180.06
2019-03-11T20:48:05.344Z,99172.76
2019-03-11T20:53:10.636Z,99185.40
2019-03-11T20:58:16.012Z,99201.31
2019-03-11T21:03:21.557Z,99218.72
2019-03-11T21:08:26.998Z,99224.60
2019-03-11T21:13:32.320Z,99222.50
2019-03-11T21:18:38.439Z,99223.65
2019-03-11T21:23:44.578Z,99226.14
2019-03-11T21:28:50.775Z,99227.76
2019-03-11T21:33:59.190Z,99222.34
2019-03-11T21:39:07.068Z,99235.25
2019-03-11T21:44:14.110Z,99248.00
2019-03-11T21:49:19.453Z,99248.06
2019-03-11T21:54:25.600Z,99242.00
2019-03-11T21:59:30.987Z,99234.72
2019-03-11T22:04:36.342Z,99224.31
2019-03-11T22:09:42.031Z,99223.92
2019-03-11T22:14:47.674Z,99225.06
2019-03-11T22:19:53.625Z,99223.35
2019-03-11T22:24:58.865Z,99234.98
2019-03-11T22:30:04.399Z,99220.23
2019-03-11T22:35:13.212Z,99222.87
2019-03-11T22:40:17.788Z,99219.32
2019-03-11T22:45:23.007Z,99221.12
2019-03-11T22:50:28.207Z,99228.30
2019-03-11T22:55:33.420Z,99224.20
2019-03-11T23:00:57.609Z,99239.00
2019-03-11T23:06:04.406Z,99250.56
2019-03-11T23:11:09.630Z,99256.47
2019-03-11T23:16:15.065Z,99274.98
2019-03-11T23:21:20.268Z,99286.31
2019-03-11T23:26:25.563Z,99300.23
2019-03-11T23:31:30.799Z,99319.70
2019-03-11T23:36:36.046Z,99324.30
2019-03-11T23:41:41.336Z,99337.94
2019-03-11T23:46:46.764Z,99343.07
2019-03-11T23:51:52.187Z,99338.63
2019-03-11T23:56:57.749Z,99336.20
